sensor_id;sensor_type;location;lat;lon;timestamp;P1;durP1;ratioP1;P2;durP2;ratioP2
62941;SDS011;49042;47.318;19.874;2023-04-09T00:01:35;24.08;;;14.95;;
62941;SDS011;49042;47.318;19.874;2023-04-09T00:04:37;22.90;;;14.57;;
62941;SDS011;49042;47.318;19.874;2023-04-09T00:07:38;24.08;;;14.38;;
62941;SDS011;49042;47.318;19.874;2023-04-09T00:10:42;22.58;;;14.93;;
62941;SDS011;49042;47.318;19.874;2023-04-09T00:13:44;22.67;;;14.52;;
62941;SDS011;49042;47.318;19.874;2023-04-09T00:16:45;23.10;;;13.95;;
62941;SDS011;49042;47.318;19.874;2023-04-09T00:19:47;17.12;;;12.23;;
62941;SDS011;49042;47.318;19.874;2023-04-09T00:22:49;23.45;;;13.90;;
62941;SDS011;49042;47.318;19.874;2023-04-09T00:25:52;20.23;;;13.30;;
62941;SDS011;49042;47.318;19.874;2023-04-09T00:28:53;17.20;;;12.50;;
62941;SDS011;49042;47.318;19.874;2023-04-09T00:31:55;17.55;;;13.27;;
62941;SDS011;49042;47.318;19.874;2023-04-09T00:34:57;18.52;;;12.90;;
62941;SDS011;49042;47.318;19.874;2023-04-09T00:37:59;22.08;;;13.43;;
62941;SDS011;49042;47.318;19.874;2023-04-09T00:41:01;20.25;;;13.85;;
62941;SDS011;49042;47.318;19.874;2023-04-09T00:44:02;22.50;;;13.55;;
62941;SDS011;49042;47.318;19.874;2023-04-09T00:47:04;18.60;;;12.63;;
62941;SDS011;49042;47.318;19.874;2023-04-09T00:50:06;24.17;;;14.77;;
62941;SDS011;49042;47.318;19.874;2023-04-09T00:53:09;28.70;;;15.18;;
62941;SDS011;49042;47.318;19.874;2023-04-09T00:56:12;22.45;;;13.98;;
62941;SDS011;49042;47.318;19.874;2023-04-09T00:59:17;21.95;;;13.95;;
62941;SDS011;49042;47.318;19.874;2023-04-09T01:02:19;23.60;;;14.75;;
62941;SDS011;49042;47.318;19.874;2023-04-09T01:05:21;20.42;;;14.13;;
62941;SDS011;49042;47.318;19.874;2023-04-09T01:15:08;28.15;;;18.75;;
62941;SDS011;49042;47.318;19.874;2023-04-09T01:18:55;24.17;;;15.63;;
62941;SDS011;49042;47.318;19.874;2023-04-09T01:21:39;23.37;;;15.77;;
62941;SDS011;49042;47.318;19.874;2023-04-09T01:31:13;22.52;;;15.30;;
62941;SDS011;49042;47.318;19.874;2023-04-09T01:34:17;24.45;;;15.23;;
62941;SDS011;49042;47.318;19.874;2023-04-09T01:37:20;21.25;;;14.43;;
62941;SDS011;49042;47.318;19.874;2023-04-09T01:40:24;24.42;;;15.38;;
62941;SDS011;49042;47.318;19.874;2023-04-09T01:43:25;22.08;;;14.87;;
62941;SDS011;49042;47.318;19.874;2023-04-09T01:46:28;22.30;;;14.52;;
62941;SDS011;49042;47.318;19.874;2023-04-09T01:49:30;21.10;;;14.45;;
62941;SDS011;49042;47.318;19.874;2023-04-09T01:52:32;25.52;;;15.23;;
62941;SDS011;49042;47.318;19.874;2023-04-09T01:55:35;25.25;;;16.17;;
62941;SDS011;49042;47.318;19.874;2023-04-09T01:58:36;29.87;;;17.10;;
62941;SDS011;49042;47.318;19.874;2023-04-09T02:05:05;28.50;;;17.60;;
62941;SDS011;49042;47.318;19.874;2023-04-09T02:08:11;26.07;;;15.13;;
62941;SDS011;49042;47.318;19.874;2023-04-09T02:11:18;22.42;;;15.25;;
62941;SDS011;49042;47.318;19.874;2023-04-09T02:14:24;25.00;;;15.13;;
62941;SDS011;49042;47.318;19.874;2023-04-09T02:17:27;23.98;;;15.30;;
62941;SDS011;49042;47.318;19.874;2023-04-09T02:20:29;22.45;;;15.00;;
62941;SDS011;49042;47.318;19.874;2023-04-09T02:23:31;26.92;;;15.65;;
62941;SDS011;49042;47.318;19.874;2023-04-09T02:26:33;24.33;;;14.55;;
62941;SDS011;49042;47.318;19.874;2023-04-09T02:29:36;25.83;;;15.25;;
62941;SDS011;49042;47.318;19.874;2023-04-09T02:32:38;25.58;;;15.23;;
62941;SDS011;49042;47.318;19.874;2023-04-09T02:35:40;24.15;;;14.85;;
62941;SDS011;49042;47.318;19.874;2023-04-09T02:38:41;21.80;;;15.05;;
62941;SDS011;49042;47.318;19.874;2023-04-09T02:41:43;22.77;;;15.00;;
62941;SDS011;49042;47.318;19.874;2023-04-09T02:44:45;22.75;;;15.52;;
62941;SDS011;49042;47.318;19.874;2023-04-09T02:47:46;26.00;;;15.65;;
62941;SDS011;49042;47.318;19.874;2023-04-09T02:50:48;23.10;;;15.40;;
62941;SDS011;49042;47.318;19.874;2023-04-09T02:53:50;25.80;;;16.05;;
62941;SDS011;49042;47.318;19.874;2023-04-09T02:56:51;24.67;;;15.77;;
62941;SDS011;49042;47.318;19.874;2023-04-09T02:59:54;28.35;;;16.58;;
62941;SDS011;49042;47.318;19.874;2023-04-09T03:02:56;25.23;;;16.17;;
62941;SDS011;49042;47.318;19.874;2023-04-09T03:05:58;24.15;;;15.57;;
62941;SDS011;49042;47.318;19.874;2023-04-09T03:09:00;24.87;;;14.95;;
62941;SDS011;49042;47.318;19.874;2023-04-09T03:12:01;26.20;;;14.65;;
62941;SDS011;49042;47.318;19.874;2023-04-09T03:15:03;21.23;;;14.32;;
62941;SDS011;49042;47.318;19.874;2023-04-09T03:18:05;20.15;;;14.48;;
62941;SDS011;49042;47.318;19.874;2023-04-09T03:21:07;22.27;;;14.73;;
62941;SDS011;49042;47.318;19.874;2023-04-09T03:24:09;27.33;;;16.92;;
62941;SDS011;49042;47.318;19.874;2023-04-09T03:27:11;38.53;;;21.30;;
62941;SDS011;49042;47.318;19.874;2023-04-09T03:30:12;51.78;;;26.55;;
62941;SDS011;49042;47.318;19.874;2023-04-09T03:33:14;30.33;;;17.52;;
62941;SDS011;49042;47.318;19.874;2023-04-09T03:36:16;21.20;;;14.80;;
62941;SDS011;49042;47.318;19.874;2023-04-09T03:39:17;22.15;;;14.98;;
62941;SDS011;49042;47.318;19.874;2023-04-09T03:42:19;20.60;;;14.20;;
62941;SDS011;49042;47.318;19.874;2023-04-09T03:45:21;22.33;;;15.30;;
62941;SDS011;49042;47.318;19.874;2023-04-09T03:48:22;21.50;;;15.23;;
62941;SDS011;49042;47.318;19.874;2023-04-09T03:51:24;22.70;;;14.20;;
62941;SDS011;49042;47.318;19.874;2023-04-09T03:54:30;23.17;;;15.52;;
62941;SDS011;49042;47.318;19.874;2023-04-09T03:57:31;28.55;;;16.75;;
62941;SDS011;49042;47.318;19.874;2023-04-09T04:00:33;24.42;;;16.62;;
62941;SDS011;49042;47.318;19.874;2023-04-09T04:03:34;27.92;;;17.45;;
62941;SDS011;49042;47.318;19.874;2023-04-09T04:06:37;28.95;;;17.42;;
62941;SDS011;49042;47.318;19.874;2023-04-09T04:09:38;22.65;;;15.60;;
62941;SDS011;49042;47.318;19.874;2023-04-09T04:12:40;23.73;;;16.15;;
62941;SDS011;49042;47.318;19.874;2023-04-09T04:15:42;24.20;;;14.63;;
62941;SDS011;49042;47.318;19.874;2023-04-09T04:18:43;25.65;;;14.73;;
62941;SDS011;49042;47.318;19.874;2023-04-09T04:21:45;23.40;;;14.85;;
62941;SDS011;49042;47.318;19.874;2023-04-09T04:24:47;21.30;;;14.73;;
62941;SDS011;49042;47.318;19.874;2023-04-09T04:27:48;23.20;;;14.75;;
62941;SDS011;49042;47.318;19.874;2023-04-09T04:30:50;23.60;;;14.73;;
62941;SDS011;49042;47.318;19.874;2023-04-09T04:33:52;21.33;;;15.07;;
62941;SDS011;49042;47.318;19.874;2023-04-09T04:36:53;22.15;;;14.52;;
62941;SDS011;49042;47.318;19.874;2023-04-09T04:39:55;20.50;;;14.63;;
62941;SDS011;49042;47.318;19.874;2023-04-09T04:42:57;20.40;;;14.32;;
62941;SDS011;49042;47.318;19.874;2023-04-09T04:45:58;25.02;;;14.52;;
62941;SDS011;49042;47.318;19.874;2023-04-09T04:49:00;22.33;;;13.93;;
62941;SDS011;49042;47.318;19.874;2023-04-09T04:52:02;23.40;;;14.73;;
62941;SDS011;49042;47.318;19.874;2023-04-09T04:55:03;21.50;;;14.18;;
62941;SDS011;49042;47.318;19.874;2023-04-09T04:58:05;20.90;;;14.50;;
62941;SDS011;49042;47.318;19.874;2023-04-09T05:01:07;20.62;;;13.75;;
62941;SDS011;49042;47.318;19.874;2023-04-09T05:04:09;26.52;;;13.90;;
62941;SDS011;49042;47.318;19.874;2023-04-09T05:07:10;22.23;;;15.07;;
62941;SDS011;49042;47.318;19.874;2023-04-09T05:10:12;25.52;;;15.48;;
62941;SDS011;49042;47.318;19.874;2023-04-09T05:13:14;21.65;;;15.02;;
62941;SDS011;49042;47.318;19.874;2023-04-09T05:16:16;22.45;;;15.55;;
62941;SDS011;49042;47.318;19.874;2023-04-09T05:19:18;23.48;;;14.68;;
62941;SDS011;49042;47.318;19.874;2023-04-09T05:22:20;22.83;;;14.13;;
62941;SDS011;49042;47.318;19.874;2023-04-09T05:25:22;24.25;;;13.85;;
62941;SDS011;49042;47.318;19.874;2023-04-09T05:28:23;26.77;;;15.20;;
62941;SDS011;49042;47.318;19.874;2023-04-09T05:31:25;23.60;;;15.00;;
62941;SDS011;49042;47.318;19.874;2023-04-09T05:34:27;26.73;;;17.15;;
62941;SDS011;49042;47.318;19.874;2023-04-09T05:37:29;26.35;;;16.87;;
62941;SDS011;49042;47.318;19.874;2023-04-09T05:40:30;21.87;;;15.00;;
62941;SDS011;49042;47.318;19.874;2023-04-09T05:43:32;22.23;;;14.50;;
62941;SDS011;49042;47.318;19.874;2023-04-09T05:46:34;23.15;;;14.05;;
62941;SDS011;49042;47.318;19.874;2023-04-09T05:49:35;21.02;;;13.95;;
62941;SDS011;49042;47.318;19.874;2023-04-09T05:52:37;20.30;;;13.73;;
62941;SDS011;49042;47.318;19.874;2023-04-09T05:55:38;19.62;;;13.13;;
62941;SDS011;49042;47.318;19.874;2023-04-09T05:58:40;21.15;;;13.18;;
62941;SDS011;49042;47.318;19.874;2023-04-09T06:01:42;17.77;;;12.25;;
62941;SDS011;49042;47.318;19.874;2023-04-09T06:04:44;25.00;;;13.18;;
62941;SDS011;49042;47.318;19.874;2023-04-09T06:07:45;19.33;;;12.77;;
62941;SDS011;49042;47.318;19.874;2023-04-09T06:10:47;18.10;;;13.02;;
62941;SDS011;49042;47.318;19.874;2023-04-09T06:13:49;18.95;;;12.82;;
62941;SDS011;49042;47.318;19.874;2023-04-09T06:16:52;22.77;;;14.23;;
62941;SDS011;49042;47.318;19.874;2023-04-09T06:19:53;21.15;;;13.98;;
62941;SDS011;49042;47.318;19.874;2023-04-09T06:22:55;24.30;;;14.77;;
62941;SDS011;49042;47.318;19.874;2023-04-09T06:25:57;25.00;;;14.32;;
62941;SDS011;49042;47.318;19.874;2023-04-09T06:28:58;22.70;;;13.70;;
62941;SDS011;49042;47.318;19.874;2023-04-09T06:32:00;23.17;;;13.98;;
62941;SDS011;49042;47.318;19.874;2023-04-09T06:35:02;20.45;;;13.30;;
62941;SDS011;49042;47.318;19.874;2023-04-09T06:38:04;17.40;;;12.10;;
62941;SDS011;49042;47.318;19.874;2023-04-09T06:41:07;20.23;;;12.65;;
62941;SDS011;49042;47.318;19.874;2023-04-09T06:44:09;18.12;;;12.75;;
62941;SDS011;49042;47.318;19.874;2023-04-09T06:47:11;20.27;;;12.35;;
62941;SDS011;49042;47.318;19.874;2023-04-09T06:50:12;18.08;;;12.13;;
62941;SDS011;49042;47.318;19.874;2023-04-09T06:53:14;17.90;;;12.02;;
62941;SDS011;49042;47.318;19.874;2023-04-09T06:56:17;18.25;;;11.80;;
62941;SDS011;49042;47.318;19.874;2023-04-09T06:59:18;22.85;;;14.77;;
62941;SDS011;49042;47.318;19.874;2023-04-09T07:02:20;21.58;;;13.77;;
62941;SDS011;49042;47.318;19.874;2023-04-09T07:05:23;17.02;;;11.38;;
62941;SDS011;49042;47.318;19.874;2023-04-09T07:08:25;17.35;;;11.80;;
62941;SDS011;49042;47.318;19.874;2023-04-09T07:11:27;19.27;;;11.12;;
62941;SDS011;49042;47.318;19.874;2023-04-09T07:14:28;14.40;;;9.52;;
62941;SDS011;49042;47.318;19.874;2023-04-09T07:17:30;10.77;;;7.90;;
62941;SDS011;49042;47.318;19.874;2023-04-09T07:20:32;11.57;;;7.97;;
62941;SDS011;49042;47.318;19.874;2023-04-09T07:23:34;9.95;;;7.43;;
62941;SDS011;49042;47.318;19.874;2023-04-09T07:26:36;10.43;;;7.25;;
62941;SDS011;49042;47.318;19.874;2023-04-09T07:29:38;9.63;;;6.97;;
62941;SDS011;49042;47.318;19.874;2023-04-09T07:32:44;11.70;;;6.80;;
62941;SDS011;49042;47.318;19.874;2023-04-09T07:35:46;10.43;;;7.35;;
62941;SDS011;49042;47.318;19.874;2023-04-09T07:38:48;13.30;;;7.85;;
62941;SDS011;49042;47.318;19.874;2023-04-09T07:41:50;9.32;;;7.60;;
62941;SDS011;49042;47.318;19.874;2023-04-09T07:44:52;11.12;;;8.35;;
62941;SDS011;49042;47.318;19.874;2023-04-09T07:47:54;15.30;;;8.00;;
62941;SDS011;49042;47.318;19.874;2023-04-09T07:50:55;11.70;;;8.00;;
62941;SDS011;49042;47.318;19.874;2023-04-09T07:53:57;8.57;;;6.72;;
62941;SDS011;49042;47.318;19.874;2023-04-09T07:56:59;10.35;;;7.60;;
62941;SDS011;49042;47.318;19.874;2023-04-09T08:00:04;12.18;;;6.85;;
62941;SDS011;49042;47.318;19.874;2023-04-09T08:03:07;9.35;;;7.30;;
62941;SDS011;49042;47.318;19.874;2023-04-09T08:06:09;8.80;;;6.70;;
62941;SDS011;49042;47.318;19.874;2023-04-09T08:09:11;9.60;;;7.43;;
62941;SDS011;49042;47.318;19.874;2023-04-09T08:12:12;9.52;;;6.78;;
62941;SDS011;49042;47.318;19.874;2023-04-09T08:15:14;8.45;;;6.95;;
62941;SDS011;49042;47.318;19.874;2023-04-09T08:18:16;8.43;;;6.82;;
62941;SDS011;49042;47.318;19.874;2023-04-09T08:21:18;9.93;;;6.90;;
62941;SDS011;49042;47.318;19.874;2023-04-09T08:24:20;8.98;;;6.78;;
62941;SDS011;49042;47.318;19.874;2023-04-09T08:27:22;10.60;;;7.80;;
62941;SDS011;49042;47.318;19.874;2023-04-09T08:30:25;9.82;;;6.97;;
62941;SDS011;49042;47.318;19.874;2023-04-09T08:33:27;10.15;;;8.02;;
62941;SDS011;49042;47.318;19.874;2023-04-09T08:36:29;11.73;;;8.20;;
62941;SDS011;49042;47.318;19.874;2023-04-09T08:39:33;10.40;;;7.50;;
62941;SDS011;49042;47.318;19.874;2023-04-09T08:42:39;13.48;;;8.18;;
62941;SDS011;49042;47.318;19.874;2023-04-09T08:45:46;11.35;;;8.30;;
62941;SDS011;49042;47.318;19.874;2023-04-09T08:48:50;12.55;;;9.10;;
62941;SDS011;49042;47.318;19.874;2023-04-09T08:51:53;10.77;;;8.77;;
62941;SDS011;49042;47.318;19.874;2023-04-09T08:54:54;10.95;;;7.97;;
62941;SDS011;49042;47.318;19.874;2023-04-09T08:57:56;12.95;;;9.43;;
62941;SDS011;49042;47.318;19.874;2023-04-09T09:00:58;10.63;;;8.52;;
62941;SDS011;49042;47.318;19.874;2023-04-09T09:04:04;11.12;;;8.95;;
62941;SDS011;49042;47.318;19.874;2023-04-09T09:07:07;14.18;;;9.90;;
62941;SDS011;49042;47.318;19.874;2023-04-09T09:10:09;12.30;;;9.05;;
62941;SDS011;49042;47.318;19.874;2023-04-09T09:16:23;10.85;;;8.02;;
62941;SDS011;49042;47.318;19.874;2023-04-09T09:22:27;14.18;;;8.80;;
62941;SDS011;49042;47.318;19.874;2023-04-09T09:25:28;11.07;;;8.05;;
62941;SDS011;49042;47.318;19.874;2023-04-09T09:28:33;10.77;;;7.60;;
62941;SDS011;49042;47.318;19.874;2023-04-09T09:31:44;9.48;;;8.02;;
62941;SDS011;49042;47.318;19.874;2023-04-09T09:34:57;12.23;;;7.82;;
62941;SDS011;49042;47.318;19.874;2023-04-09T09:41:16;10.45;;;8.77;;
62941;SDS011;49042;47.318;19.874;2023-04-09T09:44:31;10.50;;;7.90;;
62941;SDS011;49042;47.318;19.874;2023-04-09T09:47:33;10.57;;;8.25;;
62941;SDS011;49042;47.318;19.874;2023-04-09T09:50:35;11.20;;;8.30;;
62941;SDS011;49042;47.318;19.874;2023-04-09T09:53:39;12.30;;;8.70;;
62941;SDS011;49042;47.318;19.874;2023-04-09T09:56:43;11.63;;;8.80;;
62941;SDS011;49042;47.318;19.874;2023-04-09T09:59:49;12.18;;;9.18;;
62941;SDS011;49042;47.318;19.874;2023-04-09T10:02:56;12.00;;;8.90;;
62941;SDS011;49042;47.318;19.874;2023-04-09T10:06:03;11.40;;;8.65;;
62941;SDS011;49042;47.318;19.874;2023-04-09T10:09:05;12.05;;;8.85;;
62941;SDS011;49042;47.318;19.874;2023-04-09T10:12:08;14.10;;;8.82;;
62941;SDS011;49042;47.318;19.874;2023-04-09T10:15:10;13.57;;;9.23;;
62941;SDS011;49042;47.318;19.874;2023-04-09T10:18:13;12.55;;;9.10;;
62941;SDS011;49042;47.318;19.874;2023-04-09T10:24:35;12.75;;;8.73;;
62941;SDS011;49042;47.318;19.874;2023-04-09T10:27:37;15.18;;;10.20;;
62941;SDS011;49042;47.318;19.874;2023-04-09T10:30:39;14.90;;;9.13;;
62941;SDS011;49042;47.318;19.874;2023-04-09T10:33:41;12.18;;;9.88;;
62941;SDS011;49042;47.318;19.874;2023-04-09T10:36:44;14.80;;;10.05;;
62941;SDS011;49042;47.318;19.874;2023-04-09T10:39:50;16.33;;;10.02;;
62941;SDS011;49042;47.318;19.874;2023-04-09T10:42:56;17.58;;;10.20;;
62941;SDS011;49042;47.318;19.874;2023-04-09T10:45:59;13.23;;;9.43;;
62941;SDS011;49042;47.318;19.874;2023-04-09T10:49:14;16.45;;;9.20;;
62941;SDS011;49042;47.318;19.874;2023-04-09T10:52:17;12.20;;;9.63;;
62941;SDS011;49042;47.318;19.874;2023-04-09T10:55:37;13.80;;;9.85;;
62941;SDS011;49042;47.318;19.874;2023-04-09T10:58:40;12.13;;;8.70;;
62941;SDS011;49042;47.318;19.874;2023-04-09T11:01:50;12.48;;;9.02;;
62941;SDS011;49042;47.318;19.874;2023-04-09T11:08:19;10.50;;;7.57;;
62941;SDS011;49042;47.318;19.874;2023-04-09T11:11:26;13.25;;;9.38;;
62941;SDS011;49042;47.318;19.874;2023-04-09T11:14:28;11.60;;;8.13;;
62941;SDS011;49042;47.318;19.874;2023-04-09T11:17:30;11.70;;;9.02;;
62941;SDS011;49042;47.318;19.874;2023-04-09T11:20:37;13.45;;;9.20;;
62941;SDS011;49042;47.318;19.874;2023-04-09T11:23:38;13.10;;;8.98;;
62941;SDS011;49042;47.318;19.874;2023-04-09T11:26:40;12.15;;;8.60;;
62941;SDS011;49042;47.318;19.874;2023-04-09T11:29:42;10.98;;;8.05;;
62941;SDS011;49042;47.318;19.874;2023-04-09T11:32:44;10.63;;;7.68;;
62941;SDS011;49042;47.318;19.874;2023-04-09T11:35:46;14.32;;;9.93;;
62941;SDS011;49042;47.318;19.874;2023-04-09T11:38:49;12.75;;;9.15;;
62941;SDS011;49042;47.318;19.874;2023-04-09T11:41:52;13.07;;;8.70;;
62941;SDS011;49042;47.318;19.874;2023-04-09T11:44:54;13.43;;;9.85;;
62941;SDS011;49042;47.318;19.874;2023-04-09T11:47:56;15.95;;;9.75;;
62941;SDS011;49042;47.318;19.874;2023-04-09T11:50:58;14.00;;;8.93;;
62941;SDS011;49042;47.318;19.874;2023-04-09T11:54:01;13.70;;;9.23;;
62941;SDS011;49042;47.318;19.874;2023-04-09T11:57:03;14.68;;;9.23;;
62941;SDS011;49042;47.318;19.874;2023-04-09T12:00:06;12.13;;;8.85;;
62941;SDS011;49042;47.318;19.874;2023-04-09T12:03:10;13.90;;;9.35;;
62941;SDS011;49042;47.318;19.874;2023-04-09T12:06:12;15.15;;;9.60;;
62941;SDS011;49042;47.318;19.874;2023-04-09T12:09:14;11.93;;;9.07;;
62941;SDS011;49042;47.318;19.874;2023-04-09T12:12:22;66.07;;;20.55;;
62941;SDS011;49042;47.318;19.874;2023-04-09T12:15:24;11.98;;;8.07;;
62941;SDS011;49042;47.318;19.874;2023-04-09T12:18:26;14.07;;;8.48;;
62941;SDS011;49042;47.318;19.874;2023-04-09T12:21:43;19.98;;;9.32;;
62941;SDS011;49042;47.318;19.874;2023-04-09T12:24:45;20.08;;;10.95;;
62941;SDS011;49042;47.318;19.874;2023-04-09T12:27:47;13.07;;;8.35;;
62941;SDS011;49042;47.318;19.874;2023-04-09T12:30:49;11.65;;;8.20;;
62941;SDS011;49042;47.318;19.874;2023-04-09T12:33:51;13.80;;;10.30;;
62941;SDS011;49042;47.318;19.874;2023-04-09T12:36:52;14.23;;;9.50;;
62941;SDS011;49042;47.318;19.874;2023-04-09T12:39:54;14.20;;;9.38;;
62941;SDS011;49042;47.318;19.874;2023-04-09T12:42:56;12.52;;;9.57;;
62941;SDS011;49042;47.318;19.874;2023-04-09T12:45:58;15.95;;;11.50;;
62941;SDS011;49042;47.318;19.874;2023-04-09T12:49:00;21.10;;;10.55;;
62941;SDS011;49042;47.318;19.874;2023-04-09T12:52:01;14.27;;;9.93;;
62941;SDS011;49042;47.318;19.874;2023-04-09T12:55:03;14.10;;;9.85;;
62941;SDS011;49042;47.318;19.874;2023-04-09T12:58:06;20.83;;;10.20;;
62941;SDS011;49042;47.318;19.874;2023-04-09T13:01:08;16.30;;;10.73;;
62941;SDS011;49042;47.318;19.874;2023-04-09T13:04:10;14.25;;;9.15;;
62941;SDS011;49042;47.318;19.874;2023-04-09T13:07:12;12.40;;;9.25;;
62941;SDS011;49042;47.318;19.874;2023-04-09T13:10:16;13.85;;;9.25;;
62941;SDS011;49042;47.318;19.874;2023-04-09T13:13:17;16.35;;;9.82;;
62941;SDS011;49042;47.318;19.874;2023-04-09T13:16:19;14.73;;;9.55;;
62941;SDS011;49042;47.318;19.874;2023-04-09T13:19:21;13.20;;;9.55;;
62941;SDS011;49042;47.318;19.874;2023-04-09T13:22:23;15.55;;;9.70;;
62941;SDS011;49042;47.318;19.874;2023-04-09T13:25:24;14.52;;;9.95;;
62941;SDS011;49042;47.318;19.874;2023-04-09T13:28:26;16.12;;;10.38;;
62941;SDS011;49042;47.318;19.874;2023-04-09T13:31:28;21.12;;;11.30;;
62941;SDS011;49042;47.318;19.874;2023-04-09T13:34:30;14.73;;;10.18;;
62941;SDS011;49042;47.318;19.874;2023-04-09T13:37:31;13.77;;;9.48;;
62941;SDS011;49042;47.318;19.874;2023-04-09T13:40:33;14.27;;;9.75;;
62941;SDS011;49042;47.318;19.874;2023-04-09T13:43:35;12.23;;;8.82;;
62941;SDS011;49042;47.318;19.874;2023-04-09T13:46:36;13.50;;;9.13;;
62941;SDS011;49042;47.318;19.874;2023-04-09T13:49:38;13.95;;;9.40;;
62941;SDS011;49042;47.318;19.874;2023-04-09T13:52:41;14.85;;;8.55;;
62941;SDS011;49042;47.318;19.874;2023-04-09T13:55:42;13.18;;;8.75;;
62941;SDS011;49042;47.318;19.874;2023-04-09T13:58:44;13.55;;;9.48;;
62941;SDS011;49042;47.318;19.874;2023-04-09T14:01:47;15.02;;;8.85;;
62941;SDS011;49042;47.318;19.874;2023-04-09T14:04:49;15.48;;;9.43;;
62941;SDS011;49042;47.318;19.874;2023-04-09T14:07:50;13.88;;;9.77;;
62941;SDS011;49042;47.318;19.874;2023-04-09T14:10:52;14.30;;;9.40;;
62941;SDS011;49042;47.318;19.874;2023-04-09T14:13:54;13.62;;;9.10;;
62941;SDS011;49042;47.318;19.874;2023-04-09T14:16:56;12.57;;;9.48;;
62941;SDS011;49042;47.318;19.874;2023-04-09T14:19:57;17.58;;;11.52;;
62941;SDS011;49042;47.318;19.874;2023-04-09T14:22:59;17.95;;;10.70;;
62941;SDS011;49042;47.318;19.874;2023-04-09T14:26:01;18.25;;;10.55;;
62941;SDS011;49042;47.318;19.874;2023-04-09T14:29:03;15.27;;;10.50;;
62941;SDS011;49042;47.318;19.874;2023-04-09T14:32:05;15.43;;;10.15;;
62941;SDS011;49042;47.318;19.874;2023-04-09T14:35:08;14.40;;;9.98;;
62941;SDS011;49042;47.318;19.874;2023-04-09T14:38:09;18.33;;;11.88;;
62941;SDS011;49042;47.318;19.874;2023-04-09T14:41:11;15.80;;;10.90;;
62941;SDS011;49042;47.318;19.874;2023-04-09T14:44:13;16.77;;;10.75;;
62941;SDS011;49042;47.318;19.874;2023-04-09T14:47:15;16.75;;;10.88;;
62941;SDS011;49042;47.318;19.874;2023-04-09T14:50:16;18.08;;;11.73;;
62941;SDS011;49042;47.318;19.874;2023-04-09T14:53:18;17.45;;;10.90;;
62941;SDS011;49042;47.318;19.874;2023-04-09T14:56:20;16.73;;;11.20;;
62941;SDS011;49042;47.318;19.874;2023-04-09T14:59:22;18.98;;;11.23;;
62941;SDS011;49042;47.318;19.874;2023-04-09T15:02:23;14.98;;;10.77;;
62941;SDS011;49042;47.318;19.874;2023-04-09T15:05:26;15.48;;;11.45;;
62941;SDS011;49042;47.318;19.874;2023-04-09T15:08:27;18.67;;;11.75;;
62941;SDS011;49042;47.318;19.874;2023-04-09T15:11:29;19.37;;;11.48;;
62941;SDS011;49042;47.318;19.874;2023-04-09T15:14:31;24.33;;;14.73;;
62941;SDS011;49042;47.318;19.874;2023-04-09T15:17:33;13.60;;;9.07;;
62941;SDS011;49042;47.318;19.874;2023-04-09T15:20:36;41.40;;;19.92;;
62941;SDS011;49042;47.318;19.874;2023-04-09T15:23:39;17.90;;;9.57;;
62941;SDS011;49042;47.318;19.874;2023-04-09T15:26:41;11.98;;;8.98;;
62941;SDS011;49042;47.318;19.874;2023-04-09T15:29:42;12.35;;;8.85;;
62941;SDS011;49042;47.318;19.874;2023-04-09T15:32:44;15.90;;;9.15;;
62941;SDS011;49042;47.318;19.874;2023-04-09T15:35:46;12.00;;;8.48;;
62941;SDS011;49042;47.318;19.874;2023-04-09T15:38:48;12.55;;;8.48;;
62941;SDS011;49042;47.318;19.874;2023-04-09T15:41:49;13.70;;;8.73;;
62941;SDS011;49042;47.318;19.874;2023-04-09T15:44:51;13.05;;;9.30;;
62941;SDS011;49042;47.318;19.874;2023-04-09T15:47:53;13.57;;;8.68;;
62941;SDS011;49042;47.318;19.874;2023-04-09T15:50:55;12.95;;;8.68;;
62941;SDS011;49042;47.318;19.874;2023-04-09T15:53:57;14.60;;;9.55;;
62941;SDS011;49042;47.318;19.874;2023-04-09T15:56:59;14.82;;;9.45;;
62941;SDS011;49042;47.318;19.874;2023-04-09T16:00:01;14.07;;;9.20;;
62941;SDS011;49042;47.318;19.874;2023-04-09T16:03:03;16.08;;;10.13;;
62941;SDS011;49042;47.318;19.874;2023-04-09T16:06:05;15.38;;;10.15;;
62941;SDS011;49042;47.318;19.874;2023-04-09T16:09:08;17.73;;;11.25;;
62941;SDS011;49042;47.318;19.874;2023-04-09T16:12:09;15.93;;;10.50;;
62941;SDS011;49042;47.318;19.874;2023-04-09T16:15:11;18.23;;;11.12;;
62941;SDS011;49042;47.318;19.874;2023-04-09T16:18:13;16.58;;;10.90;;
62941;SDS011;49042;47.318;19.874;2023-04-09T16:21:14;19.35;;;11.70;;
62941;SDS011;49042;47.318;19.874;2023-04-09T16:24:16;17.60;;;11.20;;
62941;SDS011;49042;47.318;19.874;2023-04-09T16:27:18;16.52;;;10.65;;
62941;SDS011;49042;47.318;19.874;2023-04-09T16:30:20;16.87;;;11.10;;
62941;SDS011;49042;47.318;19.874;2023-04-09T16:33:22;17.45;;;12.65;;
62941;SDS011;49042;47.318;19.874;2023-04-09T16:36:24;16.87;;;10.75;;
62941;SDS011;49042;47.318;19.874;2023-04-09T16:39:27;18.75;;;11.88;;
62941;SDS011;49042;47.318;19.874;2023-04-09T16:42:29;16.15;;;10.77;;
62941;SDS011;49042;47.318;19.874;2023-04-09T16:45:30;20.30;;;11.40;;
62941;SDS011;49042;47.318;19.874;2023-04-09T16:48:32;15.63;;;11.15;;
62941;SDS011;49042;47.318;19.874;2023-04-09T16:51:35;20.33;;;12.10;;
62941;SDS011;49042;47.318;19.874;2023-04-09T16:54:38;24.08;;;13.73;;
62941;SDS011;49042;47.318;19.874;2023-04-09T16:57:40;21.62;;;14.55;;
62941;SDS011;49042;47.318;19.874;2023-04-09T17:00:42;23.80;;;14.18;;
62941;SDS011;49042;47.318;19.874;2023-04-09T17:03:47;22.45;;;13.00;;
62941;SDS011;49042;47.318;19.874;2023-04-09T17:06:49;18.00;;;13.15;;
62941;SDS011;49042;47.318;19.874;2023-04-09T17:09:51;21.80;;;14.05;;
62941;SDS011;49042;47.318;19.874;2023-04-09T17:12:53;23.95;;;14.43;;
62941;SDS011;49042;47.318;19.874;2023-04-09T17:15:55;20.92;;;13.77;;
62941;SDS011;49042;47.318;19.874;2023-04-09T17:18:57;19.92;;;13.50;;
62941;SDS011;49042;47.318;19.874;2023-04-09T17:21:58;18.73;;;12.50;;
62941;SDS011;49042;47.318;19.874;2023-04-09T17:25:00;21.60;;;13.57;;
62941;SDS011;49042;47.318;19.874;2023-04-09T17:28:02;32.20;;;16.62;;
62941;SDS011;49042;47.318;19.874;2023-04-09T17:31:10;25.67;;;17.23;;
62941;SDS011;49042;47.318;19.874;2023-04-09T17:34:13;27.48;;;17.45;;
62941;SDS011;49042;47.318;19.874;2023-04-09T17:37:16;28.48;;;18.60;;
62941;SDS011;49042;47.318;19.874;2023-04-09T17:40:18;31.70;;;17.67;;
62941;SDS011;49042;47.318;19.874;2023-04-09T17:43:20;27.00;;;17.23;;
62941;SDS011;49042;47.318;19.874;2023-04-09T17:46:22;26.83;;;16.95;;
62941;SDS011;49042;47.318;19.874;2023-04-09T17:49:24;26.12;;;16.20;;
62941;SDS011;49042;47.318;19.874;2023-04-09T17:52:27;29.48;;;17.73;;
62941;SDS011;49042;47.318;19.874;2023-04-09T17:55:30;25.55;;;16.55;;
62941;SDS011;49042;47.318;19.874;2023-04-09T17:58:32;33.47;;;16.55;;
62941;SDS011;49042;47.318;19.874;2023-04-09T18:01:34;25.50;;;16.08;;
62941;SDS011;49042;47.318;19.874;2023-04-09T18:04:36;30.70;;;17.35;;
62941;SDS011;49042;47.318;19.874;2023-04-09T18:07:38;31.98;;;18.30;;
62941;SDS011;49042;47.318;19.874;2023-04-09T18:10:40;31.20;;;18.62;;